sensor_id;sensor_type;location;lat;lon;timestamp;P1;durP1;ratioP1;P2;durP2;ratioP2
10232;SDS011;5161;48.174;11.756;2023-04-24T00:02:07;1.77;;;1.57;;
10232;SDS011;5161;48.174;11.756;2023-04-24T00:04:35;1.60;;;1.50;;
10232;SDS011;5161;48.174;11.756;2023-04-24T00:07:05;1.60;;;1.50;;
10232;SDS011;5161;48.174;11.756;2023-04-24T00:09:31;1.53;;;1.40;;
10232;SDS011;5161;48.174;11.756;2023-04-24T00:11:58;1.77;;;1.67;;
10232;SDS011;5161;48.174;11.756;2023-04-24T00:14:23;1.70;;;1.60;;
10232;SDS011;5161;48.174;11.756;2023-04-24T00:16:49;2.03;;;1.90;;
10232;SDS011;5161;48.174;11.756;2023-04-24T00:19:15;2.83;;;1.70;;
10232;SDS011;5161;48.174;11.756;2023-04-24T00:21:41;1.63;;;1.57;;
10232;SDS011;5161;48.174;11.756;2023-04-24T00:24:07;1.57;;;1.50;;
10232;SDS011;5161;48.174;11.756;2023-04-24T00:26:35;1.70;;;1.60;;
10232;SDS011;5161;48.174;11.756;2023-04-24T00:29:01;1.70;;;1.60;;
10232;SDS011;5161;48.174;11.756;2023-04-24T00:31:26;1.93;;;1.60;;
10232;SDS011;5161;48.174;11.756;2023-04-24T00:33:52;4.20;;;1.53;;
10232;SDS011;5161;48.174;11.756;2023-04-24T00:36:18;1.70;;;1.60;;
10232;SDS011;5161;48.174;11.756;2023-04-24T00:38:45;1.40;;;1.40;;
10232;SDS011;5161;48.174;11.756;2023-04-24T00:41:11;1.50;;;1.40;;
10232;SDS011;5161;48.174;11.756;2023-04-24T00:43:37;1.50;;;1.50;;
10232;SDS011;5161;48.174;11.756;2023-04-24T00:46:02;1.60;;;1.50;;
10232;SDS011;5161;48.174;11.756;2023-04-24T00:48:28;1.70;;;1.60;;
10232;SDS011;5161;48.174;11.756;2023-04-24T00:50:55;1.70;;;1.50;;
10232;SDS011;5161;48.174;11.756;2023-04-24T00:53:22;1.60;;;1.50;;
10232;SDS011;5161;48.174;11.756;2023-04-24T00:55:47;1.40;;;1.40;;
10232;SDS011;5161;48.174;11.756;2023-04-24T00:58:13;1.67;;;1.57;;
10232;SDS011;5161;48.174;11.756;2023-04-24T01:00:39;1.60;;;1.50;;
10232;SDS011;5161;48.174;11.756;2023-04-24T01:03:05;1.50;;;1.50;;
10232;SDS011;5161;48.174;11.756;2023-04-24T01:05:32;1.50;;;1.50;;
10232;SDS011;5161;48.174;11.756;2023-04-24T01:07:58;1.47;;;1.43;;
10232;SDS011;5161;48.174;11.756;2023-04-24T01:10:24;1.67;;;1.57;;
10232;SDS011;5161;48.174;11.756;2023-04-24T01:12:52;1.20;;;1.20;;
10232;SDS011;5161;48.174;11.756;2023-04-24T01:15:18;1.20;;;1.20;;
10232;SDS011;5161;48.174;11.756;2023-04-24T01:17:43;1.50;;;1.40;;
10232;SDS011;5161;48.174;11.756;2023-04-24T01:20:10;1.20;;;1.20;;
10232;SDS011;5161;48.174;11.756;2023-04-24T01:22:35;3.03;;;1.20;;
10232;SDS011;5161;48.174;11.756;2023-04-24T01:25:01;1.50;;;1.20;;
10232;SDS011;5161;48.174;11.756;2023-04-24T01:27:28;1.20;;;1.10;;
10232;SDS011;5161;48.174;11.756;2023-04-24T01:29:54;1.20;;;1.20;;
10232;SDS011;5161;48.174;11.756;2023-04-24T01:32:20;1.30;;;1.30;;
10232;SDS011;5161;48.174;11.756;2023-04-24T01:34:45;1.20;;;1.20;;
10232;SDS011;5161;48.174;11.756;2023-04-24T01:37:11;1.10;;;1.10;;
10232;SDS011;5161;48.174;11.756;2023-04-24T01:39:37;1.20;;;1.20;;
10232;SDS011;5161;48.174;11.756;2023-04-24T01:42:04;1.10;;;1.10;;
10232;SDS011;5161;48.174;11.756;2023-04-24T01:44:30;1.20;;;1.20;;
10232;SDS011;5161;48.174;11.756;2023-04-24T01:46:56;1.47;;;1.20;;
10232;SDS011;5161;48.174;11.756;2023-04-24T01:49:21;1.17;;;1.17;;
10232;SDS011;5161;48.174;11.756;2023-04-24T01:51:48;0.90;;;0.90;;
10232;SDS011;5161;48.174;11.756;2023-04-24T01:54:14;1.10;;;1.10;;
10232;SDS011;5161;48.174;11.756;2023-04-24T01:56:43;1.20;;;1.20;;
10232;SDS011;5161;48.174;11.756;2023-04-24T01:59:09;1.27;;;1.07;;
10232;SDS011;5161;48.174;11.756;2023-04-24T02:01:36;1.07;;;1.00;;
10232;SDS011;5161;48.174;11.756;2023-04-24T02:04:02;1.00;;;1.00;;
10232;SDS011;5161;48.174;11.756;2023-04-24T02:06:29;1.13;;;1.03;;
10232;SDS011;5161;48.174;11.756;2023-04-24T02:08:56;1.50;;;1.10;;
10232;SDS011;5161;48.174;11.756;2023-04-24T02:11:25;1.00;;;1.00;;
10232;SDS011;5161;48.174;11.756;2023-04-24T02:13:51;1.10;;;1.10;;
10232;SDS011;5161;48.174;11.756;2023-04-24T02:16:17;1.03;;;1.03;;
10232;SDS011;5161;48.174;11.756;2023-04-24T02:18:42;1.00;;;1.00;;
10232;SDS011;5161;48.174;11.756;2023-04-24T02:21:08;1.00;;;1.00;;
10232;SDS011;5161;48.174;11.756;2023-04-24T02:23:35;0.90;;;0.90;;
10232;SDS011;5161;48.174;11.756;2023-04-24T02:26:00;0.90;;;0.90;;
10232;SDS011;5161;48.174;11.756;2023-04-24T02:28:26;0.73;;;0.73;;
10232;SDS011;5161;48.174;11.756;2023-04-24T02:30:52;1.00;;;1.00;;
10232;SDS011;5161;48.174;11.756;2023-04-24T02:33:17;1.13;;;1.07;;
10232;SDS011;5161;48.174;11.756;2023-04-24T02:35:43;1.27;;;1.10;;
10232;SDS011;5161;48.174;11.756;2023-04-24T02:38:08;0.90;;;0.90;;
10232;SDS011;5161;48.174;11.756;2023-04-24T02:40:34;1.07;;;0.97;;
10232;SDS011;5161;48.174;11.756;2023-04-24T02:42:59;0.90;;;0.90;;
10232;SDS011;5161;48.174;11.756;2023-04-24T02:45:25;1.00;;;1.00;;
10232;SDS011;5161;48.174;11.756;2023-04-24T02:47:51;0.90;;;0.90;;
10232;SDS011;5161;48.174;11.756;2023-04-24T02:50:16;0.90;;;0.90;;
10232;SDS011;5161;48.174;11.756;2023-04-24T02:52:42;0.90;;;0.90;;
10232;SDS011;5161;48.174;11.756;2023-04-24T02:55:07;1.07;;;1.07;;
10232;SDS011;5161;48.174;11.756;2023-04-24T02:57:33;0.80;;;0.80;;
10232;SDS011;5161;48.174;11.756;2023-04-24T02:59:59;1.10;;;0.83;;
10232;SDS011;5161;48.174;11.756;2023-04-24T03:02:25;1.10;;;1.00;;
10232;SDS011;5161;48.174;11.756;2023-04-24T03:04:50;0.80;;;0.80;;
10232;SDS011;5161;48.174;11.756;2023-04-24T03:07:16;0.90;;;0.90;;
10232;SDS011;5161;48.174;11.756;2023-04-24T03:09:42;1.00;;;1.00;;
10232;SDS011;5161;48.174;11.756;2023-04-24T03:12:07;1.00;;;1.00;;
10232;SDS011;5161;48.174;11.756;2023-04-24T03:14:33;0.90;;;0.90;;
10232;SDS011;5161;48.174;11.756;2023-04-24T03:16:58;0.73;;;0.73;;
10232;SDS011;5161;48.174;11.756;2023-04-24T03:19:24;1.17;;;1.07;;
10232;SDS011;5161;48.174;11.756;2023-04-24T03:21:50;1.87;;;1.13;;
10232;SDS011;5161;48.174;11.756;2023-04-24T03:24:15;0.90;;;0.90;;
10232;SDS011;5161;48.174;11.756;2023-04-24T03:26:41;2.40;;;1.10;;
10232;SDS011;5161;48.174;11.756;2023-04-24T03:29:06;1.20;;;1.10;;
10232;SDS011;5161;48.174;11.756;2023-04-24T03:31:32;0.93;;;0.93;;
10232;SDS011;5161;48.174;11.756;2023-04-24T03:33:58;1.00;;;1.00;;
10232;SDS011;5161;48.174;11.756;2023-04-24T03:36:23;0.90;;;0.90;;
10232;SDS011;5161;48.174;11.756;2023-04-24T03:38:49;2.93;;;0.97;;
10232;SDS011;5161;48.174;11.756;2023-04-24T03:41:14;1.13;;;1.07;;
10232;SDS011;5161;48.174;11.756;2023-04-24T03:43:40;2.10;;;1.03;;
10232;SDS011;5161;48.174;11.756;2023-04-24T03:46:05;1.33;;;1.20;;
10232;SDS011;5161;48.174;11.756;2023-04-24T03:48:34;1.13;;;1.13;;
10232;SDS011;5161;48.174;11.756;2023-04-24T03:51:00;1.10;;;1.10;;
10232;SDS011;5161;48.174;11.756;2023-04-24T03:53:25;3.03;;;1.20;;
10232;SDS011;5161;48.174;11.756;2023-04-24T03:55:51;1.20;;;1.10;;
10232;SDS011;5161;48.174;11.756;2023-04-24T03:58:18;1.10;;;1.10;;
10232;SDS011;5161;48.174;11.756;2023-04-24T04:00:43;1.23;;;1.13;;
10232;SDS011;5161;48.174;11.756;2023-04-24T04:03:09;1.70;;;1.00;;
10232;SDS011;5161;48.174;11.756;2023-04-24T04:05:35;1.20;;;1.10;;
10232;SDS011;5161;48.174;11.756;2023-04-24T04:08:00;1.40;;;1.30;;
10232;SDS011;5161;48.174;11.756;2023-04-24T04:10:26;1.00;;;1.00;;
10232;SDS011;5161;48.174;11.756;2023-04-24T04:12:51;2.07;;;1.20;;
10232;SDS011;5161;48.174;11.756;2023-04-24T04:15:17;1.20;;;1.13;;
10232;SDS011;5161;48.174;11.756;2023-04-24T04:17:44;1.33;;;1.30;;
10232;SDS011;5161;48.174;11.756;2023-04-24T04:20:10;1.33;;;1.20;;
10232;SDS011;5161;48.174;11.756;2023-04-24T04:22:36;1.80;;;1.17;;
10232;SDS011;5161;48.174;11.756;2023-04-24T04:25:02;2.30;;;1.20;;
10232;SDS011;5161;48.174;11.756;2023-04-24T04:27:29;1.50;;;1.20;;
10232;SDS011;5161;48.174;11.756;2023-04-24T04:29:57;1.40;;;1.30;;
10232;SDS011;5161;48.174;11.756;2023-04-24T04:32:28;1.30;;;1.03;;
10232;SDS011;5161;48.174;11.756;2023-04-24T04:34:53;2.10;;;1.27;;
10232;SDS011;5161;48.174;11.756;2023-04-24T04:37:19;1.30;;;1.30;;
10232;SDS011;5161;48.174;11.756;2023-04-24T04:39:44;1.43;;;1.30;;
10232;SDS011;5161;48.174;11.756;2023-04-24T04:42:10;1.10;;;1.10;;
10232;SDS011;5161;48.174;11.756;2023-04-24T04:44:35;2.03;;;1.20;;
10232;SDS011;5161;48.174;11.756;2023-04-24T04:47:01;2.43;;;1.20;;
10232;SDS011;5161;48.174;11.756;2023-04-24T04:49:30;1.90;;;1.20;;
10232;SDS011;5161;48.174;11.756;2023-04-24T04:51:56;1.20;;;1.17;;
10232;SDS011;5161;48.174;11.756;2023-04-24T04:54:22;1.10;;;1.10;;
10232;SDS011;5161;48.174;11.756;2023-04-24T04:56:49;1.00;;;1.00;;
10232;SDS011;5161;48.174;11.756;2023-04-24T05:05:07;1.10;;;1.10;;
10232;SDS011;5161;48.174;11.756;2023-04-24T05:07:33;2.53;;;1.33;;
10232;SDS011;5161;48.174;11.756;2023-04-24T05:09:59;2.70;;;1.30;;
10232;SDS011;5161;48.174;11.756;2023-04-24T05:12:24;1.30;;;1.20;;
10232;SDS011;5161;48.174;11.756;2023-04-24T05:14:50;1.20;;;1.20;;
10232;SDS011;5161;48.174;11.756;2023-04-24T05:17:16;1.20;;;1.20;;
10232;SDS011;5161;48.174;11.756;2023-04-24T05:19:42;1.10;;;1.10;;
10232;SDS011;5161;48.174;11.756;2023-04-24T05:22:07;1.30;;;1.20;;
10232;SDS011;5161;48.174;11.756;2023-04-24T05:24:34;1.10;;;1.10;;
10232;SDS011;5161;48.174;11.756;2023-04-24T05:27:00;1.33;;;1.33;;
10232;SDS011;5161;48.174;11.756;2023-04-24T05:29:30;1.03;;;1.03;;
10232;SDS011;5161;48.174;11.756;2023-04-24T05:31:57;1.00;;;1.00;;
10232;SDS011;5161;48.174;11.756;2023-04-24T05:34:22;1.10;;;1.10;;
10232;SDS011;5161;48.174;11.756;2023-04-24T05:36:48;1.10;;;1.10;;
10232;SDS011;5161;48.174;11.756;2023-04-24T05:39:15;2.10;;;1.10;;
10232;SDS011;5161;48.174;11.756;2023-04-24T05:41:41;1.10;;;1.10;;
10232;SDS011;5161;48.174;11.756;2023-04-24T05:46:40;1.07;;;1.07;;
10232;SDS011;5161;48.174;11.756;2023-04-24T05:49:15;0.90;;;0.90;;
10232;SDS011;5161;48.174;11.756;2023-04-24T05:51:41;1.00;;;1.00;;
10232;SDS011;5161;48.174;11.756;2023-04-24T05:54:06;1.20;;;1.10;;
10232;SDS011;5161;48.174;11.756;2023-04-24T05:56:32;1.00;;;0.90;;
10232;SDS011;5161;48.174;11.756;2023-04-24T05:58:58;1.13;;;1.10;;
10232;SDS011;5161;48.174;11.756;2023-04-24T06:01:23;1.90;;;1.20;;
10232;SDS011;5161;48.174;11.756;2023-04-24T06:03:50;3.53;;;1.00;;
10232;SDS011;5161;48.174;11.756;2023-04-24T06:06:15;0.90;;;0.90;;
10232;SDS011;5161;48.174;11.756;2023-04-24T06:08:41;1.10;;;1.10;;
10232;SDS011;5161;48.174;11.756;2023-04-24T06:11:09;0.90;;;0.90;;
10232;SDS011;5161;48.174;11.756;2023-04-24T06:13:34;1.03;;;1.03;;
10232;SDS011;5161;48.174;11.756;2023-04-24T06:16:00;1.30;;;1.20;;
10232;SDS011;5161;48.174;11.756;2023-04-24T06:18:26;1.00;;;0.90;;
10232;SDS011;5161;48.174;11.756;2023-04-24T06:20:52;1.30;;;1.20;;
10232;SDS011;5161;48.174;11.756;2023-04-24T06:23:17;1.10;;;1.10;;
10232;SDS011;5161;48.174;11.756;2023-04-24T06:25:43;1.70;;;1.10;;
10232;SDS011;5161;48.174;11.756;2023-04-24T06:28:08;0.90;;;0.90;;
10232;SDS011;5161;48.174;11.756;2023-04-24T06:30:34;1.00;;;1.00;;
10232;SDS011;5161;48.174;11.756;2023-04-24T06:32:59;1.00;;;1.00;;
10232;SDS011;5161;48.174;11.756;2023-04-24T06:35:25;4.43;;;0.80;;
10232;SDS011;5161;48.174;11.756;2023-04-24T06:37:51;1.00;;;1.00;;
10232;SDS011;5161;48.174;11.756;2023-04-24T06:40:16;0.90;;;0.90;;
10232;SDS011;5161;48.174;11.756;2023-04-24T06:42:43;1.00;;;1.00;;
10232;SDS011;5161;48.174;11.756;2023-04-24T06:45:09;1.30;;;0.90;;
10232;SDS011;5161;48.174;11.756;2023-04-24T06:47:35;0.90;;;0.90;;
10232;SDS011;5161;48.174;11.756;2023-04-24T06:50:01;0.90;;;0.90;;
10232;SDS011;5161;48.174;11.756;2023-04-24T06:52:28;1.30;;;0.90;;
10232;SDS011;5161;48.174;11.756;2023-04-24T06:55:01;1.30;;;1.30;;
10232;SDS011;5161;48.174;11.756;2023-04-24T06:57:30;1.43;;;1.33;;
10232;SDS011;5161;48.174;11.756;2023-04-24T06:59:56;0.90;;;0.90;;
10232;SDS011;5161;48.174;11.756;2023-04-24T07:02:22;1.07;;;1.07;;
10232;SDS011;5161;48.174;11.756;2023-04-24T07:04:47;0.90;;;0.90;;
10232;SDS011;5161;48.174;11.756;2023-04-24T07:07:13;0.90;;;0.90;;
10232;SDS011;5161;48.174;11.756;2023-04-24T07:09:42;1.07;;;0.93;;
10232;SDS011;5161;48.174;11.756;2023-04-24T07:12:08;1.07;;;0.90;;
10232;SDS011;5161;48.174;11.756;2023-04-24T07:14:35;1.07;;;0.90;;
10232;SDS011;5161;48.174;11.756;2023-04-24T07:17:02;0.87;;;0.87;;
10232;SDS011;5161;48.174;11.756;2023-04-24T07:19:31;1.17;;;0.93;;
10232;SDS011;5161;48.174;11.756;2023-04-24T07:21:58;0.90;;;0.90;;
10232;SDS011;5161;48.174;11.756;2023-04-24T07:24:25;0.93;;;0.93;;
10232;SDS011;5161;48.174;11.756;2023-04-24T07:26:51;1.70;;;1.07;;
10232;SDS011;5161;48.174;11.756;2023-04-24T07:29:17;1.03;;;1.03;;
10232;SDS011;5161;48.174;11.756;2023-04-24T07:31:44;1.07;;;1.07;;
10232;SDS011;5161;48.174;11.756;2023-04-24T07:34:10;0.80;;;0.80;;
10232;SDS011;5161;48.174;11.756;2023-04-24T07:36:36;1.23;;;0.90;;
10232;SDS011;5161;48.174;11.756;2023-04-24T07:39:03;1.33;;;0.77;;
10232;SDS011;5161;48.174;11.756;2023-04-24T07:41:32;1.40;;;0.70;;
10232;SDS011;5161;48.174;11.756;2023-04-24T07:43:58;0.80;;;0.80;;
10232;SDS011;5161;48.174;11.756;2023-04-24T07:46:23;1.90;;;1.00;;
10232;SDS011;5161;48.174;11.756;2023-04-24T07:48:49;0.87;;;0.87;;
10232;SDS011;5161;48.174;11.756;2023-04-24T07:51:15;1.43;;;0.97;;
10232;SDS011;5161;48.174;11.756;2023-04-24T07:53:41;2.23;;;1.00;;
10232;SDS011;5161;48.174;11.756;2023-04-24T07:56:07;2.67;;;0.83;;
10232;SDS011;5161;48.174;11.756;2023-04-24T07:58:33;1.30;;;1.30;;
10232;SDS011;5161;48.174;11.756;2023-04-24T08:00:59;1.20;;;1.10;;
10232;SDS011;5161;48.174;11.756;2023-04-24T08:03:25;1.57;;;1.33;;
10232;SDS011;5161;48.174;11.756;2023-04-24T08:05:50;3.13;;;1.10;;
10232;SDS011;5161;48.174;11.756;2023-04-24T08:08:16;1.00;;;1.00;;
10232;SDS011;5161;48.174;11.756;2023-04-24T08:10:43;2.50;;;1.50;;
10232;SDS011;5161;48.174;11.756;2023-04-24T08:13:08;1.30;;;1.00;;
10232;SDS011;5161;48.174;11.756;2023-04-24T08:15:36;1.23;;;0.90;;
10232;SDS011;5161;48.174;11.756;2023-04-24T08:18:01;2.07;;;1.00;;
10232;SDS011;5161;48.174;11.756;2023-04-24T08:20:27;1.17;;;1.00;;
10232;SDS011;5161;48.174;11.756;2023-04-24T08:22:53;1.20;;;1.20;;
10232;SDS011;5161;48.174;11.756;2023-04-24T08:25:19;4.40;;;1.60;;
10232;SDS011;5161;48.174;11.756;2023-04-24T08:27:45;3.97;;;1.40;;
10232;SDS011;5161;48.174;11.756;2023-04-24T08:30:10;2.67;;;1.20;;
10232;SDS011;5161;48.174;11.756;2023-04-24T08:32:36;1.90;;;1.00;;
10232;SDS011;5161;48.174;11.756;2023-04-24T08:35:02;0.87;;;0.87;;
10232;SDS011;5161;48.174;11.756;2023-04-24T08:37:29;1.00;;;1.00;;
10232;SDS011;5161;48.174;11.756;2023-04-24T08:39:55;0.93;;;0.93;;
10232;SDS011;5161;48.174;11.756;2023-04-24T08:42:21;0.90;;;0.90;;
10232;SDS011;5161;48.174;11.756;2023-04-24T08:44:47;1.07;;;1.00;;
10232;SDS011;5161;48.174;11.756;2023-04-24T08:47:14;1.00;;;1.00;;
10232;SDS011;5161;48.174;11.756;2023-04-24T08:49:41;1.10;;;1.00;;
10232;SDS011;5161;48.174;11.756;2023-04-24T08:52:07;0.90;;;0.90;;
10232;SDS011;5161;48.174;11.756;2023-04-24T08:54:34;0.90;;;0.90;;
10232;SDS011;5161;48.174;11.756;2023-04-24T08:57:00;2.27;;;1.20;;
10232;SDS011;5161;48.174;11.756;2023-04-24T08:59:28;1.20;;;1.20;;
10232;SDS011;5161;48.174;11.756;2023-04-24T09:01:55;1.30;;;1.30;;
10232;SDS011;5161;48.174;11.756;2023-04-24T09:04:22;1.70;;;1.60;;
10232;SDS011;5161;48.174;11.756;2023-04-24T09:06:49;1.30;;;1.30;;
10232;SDS011;5161;48.174;11.756;2023-04-24T09:09:16;1.40;;;1.40;;
10232;SDS011;5161;48.174;11.756;2023-04-24T09:11:45;2.10;;;2.00;;
10232;SDS011;5161;48.174;11.756;2023-04-24T09:14:11;1.50;;;1.50;;
10232;SDS011;5161;48.174;11.756;2023-04-24T09:16:39;1.40;;;1.40;;
10232;SDS011;5161;48.174;11.756;2023-04-24T09:19:05;2.10;;;2.00;;
10232;SDS011;5161;48.174;11.756;2023-04-24T09:21:34;2.60;;;2.40;;
10232;SDS011;5161;48.174;11.756;2023-04-24T09:24:01;2.13;;;1.97;;
10232;SDS011;5161;48.174;11.756;2023-04-24T09:26:32;2.13;;;2.03;;
10232;SDS011;5161;48.174;11.756;2023-04-24T09:29:02;2.50;;;2.40;;
10232;SDS011;5161;48.174;11.756;2023-04-24T09:31:29;2.57;;;2.37;;
10232;SDS011;5161;48.174;11.756;2023-04-24T09:36:29;1.63;;;1.60;;
10232;SDS011;5161;48.174;11.756;2023-04-24T09:39:02;1.57;;;1.57;;
10232;SDS011;5161;48.174;11.756;2023-04-24T09:41:29;1.40;;;1.40;;
10232;SDS011;5161;48.174;11.756;2023-04-24T09:43:57;1.60;;;1.50;;
10232;SDS011;5161;48.174;11.756;2023-04-24T09:46:36;1.60;;;1.50;;
10232;SDS011;5161;48.174;11.756;2023-04-24T09:49:14;3.17;;;1.60;;
10232;SDS011;5161;48.174;11.756;2023-04-24T09:51:41;1.93;;;1.53;;
10232;SDS011;5161;48.174;11.756;2023-04-24T09:54:13;1.87;;;1.83;;
10232;SDS011;5161;48.174;11.756;2023-04-24T09:56:43;1.80;;;1.70;;
10232;SDS011;5161;48.174;11.756;2023-04-24T09:59:10;2.10;;;1.90;;
10232;SDS011;5161;48.174;11.756;2023-04-24T10:01:36;2.03;;;1.93;;
10232;SDS011;5161;48.174;11.756;2023-04-24T10:04:03;2.10;;;2.00;;
10232;SDS011;5161;48.174;11.756;2023-04-24T10:06:35;2.73;;;2.17;;
10232;SDS011;5161;48.174;11.756;2023-04-24T10:09:01;2.70;;;1.87;;
10232;SDS011;5161;48.174;11.756;2023-04-24T10:11:28;2.23;;;2.13;;
10232;SDS011;5161;48.174;11.756;2023-04-24T10:13:55;2.30;;;2.20;;
10232;SDS011;5161;48.174;11.756;2023-04-24T10:16:22;2.00;;;1.90;;
10232;SDS011;5161;48.174;11.756;2023-04-24T10:18:49;2.20;;;2.10;;
10232;SDS011;5161;48.174;11.756;2023-04-24T10:21:16;2.47;;;2.10;;
10232;SDS011;5161;48.174;11.756;2023-04-24T10:23:42;2.27;;;2.17;;
10232;SDS011;5161;48.174;11.756;2023-04-24T10:26:12;2.90;;;2.03;;
10232;SDS011;5161;48.174;11.756;2023-04-24T10:28:45;3.70;;;2.20;;
10232;SDS011;5161;48.174;11.756;2023-04-24T10:31:12;2.43;;;2.23;;
10232;SDS011;5161;48.174;11.756;2023-04-24T10:33:41;2.70;;;2.00;;
10232;SDS011;5161;48.174;11.756;2023-04-24T10:36:08;2.27;;;2.17;;
10232;SDS011;5161;48.174;11.756;2023-04-24T10:38:35;2.50;;;2.20;;
10232;SDS011;5161;48.174;11.756;2023-04-24T10:41:07;2.10;;;2.00;;
10232;SDS011;5161;48.174;11.756;2023-04-24T10:43:34;2.40;;;2.20;;
10232;SDS011;5161;48.174;11.756;2023-04-24T10:46:01;2.30;;;2.13;;
10232;SDS011;5161;48.174;11.756;2023-04-24T10:48:28;2.50;;;2.30;;
10232;SDS011;5161;48.174;11.756;2023-04-24T10:50:54;2.17;;;1.90;;
10232;SDS011;5161;48.174;11.756;2023-04-24T10:53:20;4.43;;;2.10;;
10232;SDS011;5161;48.174;11.756;2023-04-24T10:55:59;2.17;;;1.97;;
10232;SDS011;5161;48.174;11.756;2023-04-24T10:58:38;2.23;;;1.90;;
10232;SDS011;5161;48.174;11.756;2023-04-24T11:01:06;2.30;;;2.20;;
10232;SDS011;5161;48.174;11.756;2023-04-24T11:03:32;2.10;;;2.00;;
10232;SDS011;5161;48.174;11.756;2023-04-24T11:06:04;2.13;;;1.90;;
10232;SDS011;5161;48.174;11.756;2023-04-24T11:08:32;2.20;;;2.00;;
10232;SDS011;5161;48.174;11.756;2023-04-24T11:10:58;1.30;;;1.30;;
10232;SDS011;5161;48.174;11.756;2023-04-24T11:13:25;2.50;;;1.50;;
10232;SDS011;5161;48.174;11.756;2023-04-24T11:19:00;2.00;;;1.90;;
10232;SDS011;5161;48.174;11.756;2023-04-24T11:21:32;3.13;;;1.70;;
10232;SDS011;5161;48.174;11.756;2023-04-24T11:26:56;2.10;;;2.00;;
10232;SDS011;5161;48.174;11.756;2023-04-24T11:37:29;1.70;;;1.60;;
10232;SDS011;5161;48.174;11.756;2023-04-24T11:40:00;1.70;;;1.60;;
10232;SDS011;5161;48.174;11.756;2023-04-24T11:42:25;2.10;;;2.00;;
10232;SDS011;5161;48.174;11.756;2023-04-24T11:44:52;2.40;;;2.30;;
10232;SDS011;5161;48.174;11.756;2023-04-24T11:47:20;2.03;;;1.93;;
10232;SDS011;5161;48.174;11.756;2023-04-24T11:49:52;2.17;;;2.07;;
10232;SDS011;5161;48.174;11.756;2023-04-24T11:52:18;1.93;;;1.83;;
10232;SDS011;5161;48.174;11.756;2023-04-24T11:54:48;2.20;;;2.10;;
10232;SDS011;5161;48.174;11.756;2023-04-24T11:57:15;2.10;;;2.00;;
10232;SDS011;5161;48.174;11.756;2023-04-24T11:59:40;2.40;;;2.20;;
10232;SDS011;5161;48.174;11.756;2023-04-24T12:02:06;1.63;;;1.60;;
10232;SDS011;5161;48.174;11.756;2023-04-24T12:04:41;1.50;;;1.40;;
10232;SDS011;5161;48.174;11.756;2023-04-24T12:07:06;1.50;;;1.40;;
10232;SDS011;5161;48.174;11.756;2023-04-24T12:09:45;1.53;;;1.43;;
10232;SDS011;5161;48.174;11.756;2023-04-24T12:12:13;1.77;;;1.67;;
10232;SDS011;5161;48.174;11.756;2023-04-24T12:14:50;1.63;;;1.50;;
10232;SDS011;5161;48.174;11.756;2023-04-24T12:17:23;1.63;;;1.50;;
10232;SDS011;5161;48.174;11.756;2023-04-24T12:19:57;1.60;;;1.60;;
10232;SDS011;5161;48.174;11.756;2023-04-24T12:22:24;2.00;;;1.90;;
10232;SDS011;5161;48.174;11.756;2023-04-24T12:24:59;2.00;;;1.90;;
10232;SDS011;5161;48.174;11.756;2023-04-24T12:27:33;2.13;;;1.93;;
10232;SDS011;5161;48.174;11.756;2023-04-24T12:30:01;2.00;;;1.80;;
10232;SDS011;5161;48.174;11.756;2023-04-24T12:32:28;2.50;;;1.90;;
10232;SDS011;5161;48.174;11.756;2023-04-24T12:34:54;1.67;;;1.67;;
10232;SDS011;5161;48.174;11.756;2023-04-24T12:37:21;2.00;;;1.90;;
10232;SDS011;5161;48.174;11.756;2023-04-24T12:40:05;2.10;;;2.00;;
10232;SDS011;5161;48.174;11.756;2023-04-24T12:42:33;3.10;;;2.00;;
10232;SDS011;5161;48.174;11.756;2023-04-24T12:45:00;2.10;;;2.00;;
10232;SDS011;5161;48.174;11.756;2023-04-24T12:47:27;2.27;;;1.90;;
10232;SDS011;5161;48.174;11.756;2023-04-24T12:49:53;2.30;;;2.20;;
10232;SDS011;5161;48.174;11.756;2023-04-24T12:52:20;2.43;;;2.20;;
10232;SDS011;5161;48.174;11.756;2023-04-24T12:54:52;2.10;;;2.00;;
10232;SDS011;5161;48.174;11.756;2023-04-24T12:57:18;2.30;;;2.20;;
10232;SDS011;5161;48.174;11.756;2023-04-24T12:59:44;2.37;;;2.23;;
10232;SDS011;5161;48.174;11.756;2023-04-24T13:02:10;1.97;;;1.80;;
10232;SDS011;5161;48.174;11.756;2023-04-24T13:04:36;2.20;;;2.10;;
10232;SDS011;5161;48.174;11.756;2023-04-24T13:07:02;1.97;;;1.87;;
10232;SDS011;5161;48.174;11.756;2023-04-24T13:09:28;2.30;;;2.03;;
10232;SDS011;5161;48.174;11.756;2023-04-24T13:11:55;2.20;;;2.10;;
10232;SDS011;5161;48.174;11.756;2023-04-24T13:14:21;2.87;;;1.90;;
10232;SDS011;5161;48.174;11.756;2023-04-24T13:16:48;1.93;;;1.90;;
10232;SDS011;5161;48.174;11.756;2023-04-24T13:19:14;1.80;;;1.70;;
10232;SDS011;5161;48.174;11.756;2023-04-24T13:21:40;2.10;;;2.00;;
10232;SDS011;5161;48.174;11.756;2023-04-24T13:24:05;2.00;;;1.90;;
10232;SDS011;5161;48.174;11.756;2023-04-24T13:26:32;2.00;;;1.90;;
10232;SDS011;5161;48.174;11.756;2023-04-24T13:28:58;2.30;;;2.20;;
10232;SDS011;5161;48.174;11.756;2023-04-24T13:31:23;4.00;;;2.30;;
10232;SDS011;5161;48.174;11.756;2023-04-24T13:33:49;3.07;;;2.27;;
10232;SDS011;5161;48.174;11.756;2023-04-24T13:36:15;2.50;;;2.40;;
10232;SDS011;5161;48.174;11.756;2023-04-24T13:38:42;2.30;;;2.20;;
10232;SDS011;5161;48.174;11.756;2023-04-24T13:41:09;4.13;;;2.50;;
10232;SDS011;5161;48.174;11.756;2023-04-24T13:43:35;3.07;;;2.40;;
10232;SDS011;5161;48.174;11.756;2023-04-24T13:46:00;2.43;;;2.27;;
10232;SDS011;5161;48.174;11.756;2023-04-24T13:48:27;2.53;;;2.33;;
10232;SDS011;5161;48.174;11.756;2023-04-24T13:50:54;3.40;;;2.40;;
10232;SDS011;5161;48.174;11.756;2023-04-24T13:53:19;3.90;;;2.50;;
10232;SDS011;5161;48.174;11.756;2023-04-24T13:55:45;2.77;;;2.57;;
10232;SDS011;5161;48.174;11.756;2023-04-24T13:58:10;2.60;;;2.40;;
10232;SDS011;5161;48.174;11.756;2023-04-24T14:00:36;2.33;;;2.23;;
10232;SDS011;5161;48.174;11.756;2023-04-24T14:03:01;4.40;;;2.57;;
10232;SDS011;5161;48.174;11.756;2023-04-24T14:05:27;2.13;;;2.03;;
10232;SDS011;5161;48.174;11.756;2023-04-24T14:07:52;2.87;;;2.40;;
10232;SDS011;5161;48.174;11.756;2023-04-24T14:10:18;3.27;;;2.00;;
10232;SDS011;5161;48.174;11.756;2023-04-24T14:12:44;2.20;;;2.10;;
10232;SDS011;5161;48.174;11.756;2023-04-24T14:15:10;2.53;;;2.37;;
10232;SDS011;5161;48.174;11.756;2023-04-24T14:17:36;3.20;;;2.60;;
10232;SDS011;5161;48.174;11.756;2023-04-24T14:20:02;2.50;;;2.30;;
10232;SDS011;5161;48.174;11.756;2023-04-24T14:22:29;2.73;;;2.53;;
10232;SDS011;5161;48.174;11.756;2023-04-24T14:24:55;3.00;;;2.20;;
10232;SDS011;5161;48.174;11.756;2023-04-24T14:27:20;2.20;;;2.10;;
10232;SDS011;5161;48.174;11.756;2023-04-24T14:29:46;2.70;;;2.20;;
10232;SDS011;5161;48.174;11.756;2023-04-24T14:32:11;2.50;;;2.30;;
10232;SDS011;5161;48.174;11.756;2023-04-24T14:34:39;3.33;;;2.27;;
10232;SDS011;5161;48.174;11.756;2023-04-24T14:37:05;3.63;;;2.17;;
10232;SDS011;5161;48.174;11.756;2023-04-24T14:39:31;2.30;;;2.20;;
10232;SDS011;5161;48.174;11.756;2023-04-24T14:41:56;2.43;;;2.23;;
10232;SDS011;5161;48.174;11.756;2023-04-24T14:44:22;2.33;;;2.23;;
10232;SDS011;5161;48.174;11.756;2023-04-24T14:46:48;2.47;;;2.33;;
10232;SDS011;5161;48.174;11.756;2023-04-24T14:49:14;5.93;;;2.50;;
10232;SDS011;5161;48.174;11.756;2023-04-24T14:51:40;2.87;;;2.60;;
10232;SDS011;5161;48.174;11.756;2023-04-24T14:54:06;2.67;;;2.47;;
10232;SDS011;5161;48.174;11.756;2023-04-24T14:56:32;3.20;;;2.30;;
10232;SDS011;5161;48.174;11.756;2023-04-24T14:58:57;2.73;;;2.53;;
10232;SDS011;5161;48.174;11.756;2023-04-24T15:01:23;5.53;;;2.37;;
10232;SDS011;5161;48.174;11.756;2023-04-24T15:03:49;3.07;;;2.30;;
10232;SDS011;5161;48.174;11.756;2023-04-24T15:06:14;2.60;;;2.43;;
10232;SDS011;5161;48.174;11.756;2023-04-24T15:08:40;2.50;;;2.30;;
10232;SDS011;5161;48.174;11.756;2023-04-24T15:11:06;2.60;;;2.40;;